Time;durP1;ratioP1;P1;durP2;ratioP2;P2;SDS_P1;SDS_P2;PMS_P1;PMS_P2;Temp;Humidity;BMP_temperature;BMP_pressure;BME280_temperature;BME280_humidity;BME280_pressure;Samples;Min_cycle;Max_cycle;Signal;HPM_P1;HPM_P2
2022/12/22 03:26:49;;;;;;;126.25;7.70;;;;;;;;;;5022421;28;20107;-77
2022/12/22 03:29:15;;;;;;;84.20;7.65;;;;;;;;;;5019121;28;20417;-77
2022/12/22 03:31:40;;;;;;;89.13;7.50;;;;;;;;;;5023629;28;20041;-77
2022/12/22 03:34:06;;;;;;;64.72;6.78;;;;;;;;;;5015435;28;20417;-78
2022/12/22 03:36:31;;;;;;;52.83;6.32;;;;;;;;;;5019212;28;20073;-78
2022/12/22 03:38:56;;;;;;;59.95;6.03;;;;;;;;;;5027695;28;20042;-77
2022/12/22 03:46:50;;;;;;;49.25;5.63;;;;;;;;;;5018419;28;20488;-76
2022/12/22 03:49:15;;;;;;;55.47;6.38;;;;;;;;;;5016334;28;20081;-77
2022/12/22 03:51:43;;;;;;;64.40;6.65;;;;;;;;;;5039555;28;20046;-77
2022/12/22 03:54:10;;;;;;;47.00;6.10;;;;;;;;;;5013334;28;20029;-77
2022/12/22 03:56:36;;;;;;;165.90;10.20;;;;;;;;;;5017029;28;20049;-77
2022/12/22 03:59:02;;;;;;;80.63;8.07;;;;;;;;;;5013910;28;20053;-77
2022/12/22 04:01:27;;;;;;;128.15;9.52;;;;;;;;;;5017065;28;20022;-77
2022/12/22 04:03:53;;;;;;;79.88;8.13;;;;;;;;;;5021927;28;20452;-77
2022/12/22 04:06:18;;;;;;;96.22;9.40;;;;;;;;;;5018859;28;20033;-79
2022/12/22 04:08:44;;;;;;;70.82;9.45;;;;;;;;;;5023438;28;20032;-79
2022/12/22 04:13:57;;;;;;;68.35;9.02;;;;;;;;;;5021633;28;20068;-78
2022/12/22 04:16:23;;;;;;;84.20;8.55;;;;;;;;;;5035033;28;20548;-78
2022/12/22 04:18:48;;;;;;;94.70;8.48;;;;;;;;;;5018273;28;20493;-77
2022/12/22 04:21:14;;;;;;;96.65;9.30;;;;;;;;;;5028218;28;20039;-77
2022/12/22 04:23:39;;;;;;;83.68;9.02;;;;;;;;;;5019875;28;20104;-77
2022/12/22 04:26:04;;;;;;;128.75;10.25;;;;;;;;;;5022989;28;20044;-77
2022/12/22 04:28:30;;;;;;;154.07;10.73;;;;;;;;;;5019896;28;20523;-76
2022/12/22 04:30:55;;;;;;;97.63;9.05;;;;;;;;;;5023720;28;20057;-76
2022/12/22 04:33:21;;;;;;;75.40;8.40;;;;;;;;;;5016827;28;20046;-77
2022/12/22 04:35:46;;;;;;;125.75;9.60;;;;;;;;;;5017510;28;20036;-76
2022/12/22 04:38:11;;;;;;;77.05;9.25;;;;;;;;;;5028289;28;20041;-75
2022/12/22 04:40:37;;;;;;;66.03;8.05;;;;;;;;;;5018980;28;20038;-76
2022/12/22 04:43:02;;;;;;;120.03;9.13;;;;;;;;;;5026173;28;20030;-76
2022/12/22 04:45:27;;;;;;;99.78;9.65;;;;;;;;;;5029804;28;20109;-76
2022/12/22 04:47:53;;;;;;;99.53;9.45;;;;;;;;;;5027730;28;20139;-76
2022/12/22 04:50:18;;;;;;;38.63;6.90;;;;;;;;;;5030513;28;20041;-77
2022/12/22 04:52:44;;;;;;;50.10;8.48;;;;;;;;;;5026392;28;20086;-76
2022/12/22 04:55:09;;;;;;;40.38;6.63;;;;;;;;;;5027476;28;20112;-76
2022/12/22 04:57:35;;;;;;;45.00;5.75;;;;;;;;;;5024388;28;20025;-76
2022/12/22 05:00:01;;;;;;;32.70;4.85;;;;;;;;;;5017816;28;20041;-77
2022/12/22 05:02:26;;;;;;;31.48;5.30;;;;;;;;;;5026553;28;20037;-79
2022/12/22 05:04:52;;;;;;;45.63;6.18;;;;;;;;;;5031366;28;20079;-79
2022/12/22 05:07:17;;;;;;;74.88;6.22;;;;;;;;;;5019175;28;20754;-76
2022/12/22 05:09:42;;;;;;;44.13;5.53;;;;;;;;;;5024457;28;20079;-77
2022/12/22 05:14:52;;;;;;;114.80;6.72;;;;;;;;;;5016797;28;20041;-76
2022/12/22 05:17:17;;;;;;;23.75;4.03;;;;;;;;;;5021153;28;20045;-75
2022/12/22 05:19:43;;;;;;;16.48;4.10;;;;;;;;;;5024394;28;20038;-76
2022/12/22 05:22:08;;;;;;;20.77;4.10;;;;;;;;;;5024887;28;20037;-75
2022/12/22 05:24:34;;;;;;;22.02;4.60;;;;;;;;;;5018672;28;20060;-75
2022/12/22 05:26:59;;;;;;;17.67;4.47;;;;;;;;;;5027707;28;20461;-75
2022/12/22 05:29:25;;;;;;;106.30;6.47;;;;;;;;;;5033768;28;20143;-76
2022/12/22 05:31:50;;;;;;;164.63;8.45;;;;;;;;;;5031796;28;20041;-76
2022/12/22 05:34:15;;;;;;;94.05;7.82;;;;;;;;;;5022447;28;20022;-75
2022/12/22 05:36:41;;;;;;;97.00;8.30;;;;;;;;;;5027115;28;20495;-76
2022/12/22 05:39:06;;;;;;;93.85;7.20;;;;;;;;;;5017102;28;20048;-76
2022/12/22 05:41:31;;;;;;;49.28;7.25;;;;;;;;;;5021628;28;20033;-76
2022/12/22 05:43:57;;;;;;;91.30;8.07;;;;;;;;;;5019321;28;20044;-77
2022/12/22 05:46:22;;;;;;;162.20;11.13;;;;;;;;;;5023396;28;20116;-77
2022/12/22 05:48:48;;;;;;;99.78;6.70;;;;;;;;;;5020836;28;20054;-78
2022/12/22 05:51:13;;;;;;;70.63;7.15;;;;;;;;;;5005331;28;20025;-77
2022/12/22 05:53:39;;;;;;;33.38;5.93;;;;;;;;;;5020617;28;20065;-77
2022/12/22 05:56:05;;;;;;;28.42;4.45;;;;;;;;;;5018543;28;20085;-79
2022/12/22 05:58:31;;;;;;;44.03;6.57;;;;;;;;;;5017370;28;20445;-79
2022/12/22 06:00:58;;;;;;;36.42;5.03;;;;;;;;;;5019017;28;20030;-79
2022/12/22 06:03:25;;;;;;;36.72;5.28;;;;;;;;;;5016636;28;20113;-78
2022/12/22 06:05:50;;;;;;;39.38;4.93;;;;;;;;;;5015629;28;20029;-78
2022/12/22 06:08:16;;;;;;;38.08;6.03;;;;;;;;;;5018131;28;20053;-78
2022/12/22 06:10:41;;;;;;;23.08;5.00;;;;;;;;;;5026457;28;20385;-79
2022/12/22 06:13:06;;;;;;;26.45;5.25;;;;;;;;;;5029370;28;20068;-76
2022/12/22 06:15:32;;;;;;;40.65;6.18;;;;;;;;;;5027890;28;20116;-79
2022/12/22 06:17:57;;;;;;;20.38;4.88;;;;;;;;;;5024062;28;20384;-77
2022/12/22 06:20:23;;;;;;;23.55;4.43;;;;;;;;;;5028071;28;20038;-78
2022/12/22 06:22:48;;;;;;;19.25;4.03;;;;;;;;;;5027739;28;20033;-77
2022/12/22 06:25:13;;;;;;;20.58;4.68;;;;;;;;;;5005464;28;20073;-80
2022/12/22 06:27:39;;;;;;;23.08;4.50;;;;;;;;;;5027041;28;20393;-79
2022/12/22 06:30:05;;;;;;;24.92;4.53;;;;;;;;;;5014447;28;20117;-79
2022/12/22 06:32:30;;;;;;;23.40;4.82;;;;;;;;;;5017855;28;20041;-79
2022/12/22 06:34:56;;;;;;;31.90;5.38;;;;;;;;;;5022283;28;20469;-80
2022/12/22 06:37:21;;;;;;;25.15;4.30;;;;;;;;;;5023142;28;20046;-79
2022/12/22 06:39:46;;;;;;;23.13;4.43;;;;;;;;;;5032478;28;20567;-79
2022/12/22 06:44:56;;;;;;;37.92;5.07;;;;;;;;;;5026006;28;20171;-77
2022/12/22 06:47:21;;;;;;;19.95;4.68;;;;;;;;;;5025730;28;20130;-77
2022/12/22 06:49:47;;;;;;;31.17;5.28;;;;;;;;;;5016485;28;20049;-76
2022/12/22 06:52:12;;;;;;;51.67;5.18;;;;;;;;;;5017640;28;20026;-76
2022/12/22 06:54:38;;;;;;;32.08;4.50;;;;;;;;;;5019322;28;20136;-77
2022/12/22 06:57:03;;;;;;;22.77;4.25;;;;;;;;;;5023483;28;20045;-76
2022/12/22 06:59:28;;;;;;;20.10;5.18;;;;;;;;;;5023281;28;20034;-75
2022/12/22 07:01:54;;;;;;;33.70;4.65;;;;;;;;;;5015374;28;20053;-76
2022/12/22 07:04:20;;;;;;;26.45;4.40;;;;;;;;;;5018086;28;20047;-76
2022/12/22 07:06:46;;;;;;;25.65;4.95;;;;;;;;;;5018756;28;20034;-76
2022/12/22 07:09:12;;;;;;;18.33;3.63;;;;;;;;;;5024071;28;20096;-75
2022/12/22 07:11:37;;;;;;;18.70;3.67;;;;;;;;;;5018710;28;20429;-75
2022/12/22 07:14:02;;;;;;;27.20;4.45;;;;;;;;;;5021958;28;20030;-78
2022/12/22 07:16:28;;;;;;;28.50;4.72;;;;;;;;;;5018705;28;20038;-78
2022/12/22 07:18:53;;;;;;;19.02;4.30;;;;;;;;;;5024732;28;20029;-78
2022/12/22 07:21:19;;;;;;;17.98;5.15;;;;;;;;;;5018304;28;20072;-78
2022/12/22 07:23:44;;;;;;;28.30;5.03;;;;;;;;;;5035259;28;20030;-78
2022/12/22 07:26:10;;;;;;;24.05;4.75;;;;;;;;;;5019490;28;20425;-78
2022/12/22 07:28:37;;;;;;;28.05;4.60;;;;;;;;;;5021206;28;20033;-78
2022/12/22 07:31:03;;;;;;;19.00;3.97;;;;;;;;;;5021330;28;20041;-79
2022/12/22 07:33:28;;;;;;;28.05;4.07;;;;;;;;;;5023835;28;20200;-78
2022/12/22 07:36:10;;;;;;;27.05;4.50;;;;;;;;;;5015255;28;20030;-78
2022/12/22 07:38:38;;;;;;;67.55;5.50;;;;;;;;;;5047004;28;20038;-77
2022/12/22 07:42:43;;;;;;;11.93;3.70;;;;;;;;;;5020062;28;20473;-78
2022/12/22 07:43:52;;;;;;;14.75;3.95;;;;;;;;;;5019724;28;20038;-78
2022/12/22 07:46:17;;;;;;;18.98;4.43;;;;;;;;;;5024211;28;20044;-77
2022/12/22 07:51:26;;;;;;;24.27;4.53;;;;;;;;;;5015033;28;20096;-77
2022/12/22 07:53:52;;;;;;;14.98;4.20;;;;;;;;;;5018948;28;20504;-77
2022/12/22 07:56:17;;;;;;;14.85;4.32;;;;;;;;;;5019447;28;20028;-78
2022/12/22 07:58:42;;;;;;;24.83;4.82;;;;;;;;;;5021654;28;20088;-77
2022/12/22 08:01:08;;;;;;;22.55;4.63;;;;;;;;;;5022269;28;20042;-78
2022/12/22 08:03:33;;;;;;;24.75;4.38;;;;;;;;;;5024386;28;20126;-78
2022/12/22 08:06:03;;;;;;;25.10;4.47;;;;;;;;;;5014754;28;20508;-79
2022/12/22 08:08:28;;;;;;;42.15;5.30;;;;;;;;;;5023220;28;20048;-78
2022/12/22 08:10:53;;;;;;;69.35;6.20;;;;;;;;;;5024370;28;20461;-78
2022/12/22 08:13:19;;;;;;;30.60;5.13;;;;;;;;;;5025715;28;20076;-78
2022/12/22 08:15:44;;;;;;;32.65;5.38;;;;;;;;;;5020504;28;20026;-78
2022/12/22 08:18:10;;;;;;;15.30;4.97;;;;;;;;;;5019261;28;20055;-78
2022/12/22 08:20:35;;;;;;;18.45;4.60;;;;;;;;;;5007231;28;20034;-77
2022/12/22 08:23:01;;;;;;;20.90;5.10;;;;;;;;;;5020119;28;20077;-78
2022/12/22 08:25:26;;;;;;;26.90;5.63;;;;;;;;;;5017242;28;20037;-79
2022/12/22 08:27:53;;;;;;;16.83;4.72;;;;;;;;;;5022065;28;20029;-77
2022/12/22 08:30:18;;;;;;;74.68;7.38;;;;;;;;;;5010890;28;20080;-77
2022/12/22 08:32:46;;;;;;;44.65;5.35;;;;;;;;;;5020733;28;20073;-76
2022/12/22 08:35:11;;;;;;;115.78;7.50;;;;;;;;;;5026877;28;20033;-77
2022/12/22 08:37:40;;;;;;;15.65;5.75;;;;;;;;;;5023364;28;20042;-77
2022/12/22 08:40:07;;;;;;;72.70;8.18;;;;;;;;;;5021147;28;20064;-78
2022/12/22 08:42:33;;;;;;;25.42;7.18;;;;;;;;;;5019916;28;20041;-77
2022/12/22 08:44:58;;;;;;;53.15;12.35;;;;;;;;;;5015139;28;20088;-78
2022/12/22 08:47:24;;;;;;;50.35;17.67;;;;;;;;;;5018892;28;20040;-78
2022/12/22 08:49:49;;;;;;;39.88;16.25;;;;;;;;;;5019771;28;20452;-78
2022/12/22 08:52:15;;;;;;;35.60;13.77;;;;;;;;;;5024140;28;20056;-78
2022/12/22 08:54:40;;;;;;;30.85;12.45;;;;;;;;;;5024668;28;20435;-78
2022/12/22 08:57:06;;;;;;;51.03;14.13;;;;;;;;;;5019902;28;20037;-78
2022/12/22 08:59:31;;;;;;;46.55;15.02;;;;;;;;;;5014165;28;20096;-77
2022/12/22 09:01:57;;;;;;;33.72;14.00;;;;;;;;;;4992707;28;20034;-78
2022/12/22 09:04:24;;;;;;;32.28;12.63;;;;;;;;;;5016114;28;20041;-79
2022/12/22 09:06:52;;;;;;;27.35;8.75;;;;;;;;;;5014834;28;20037;-77
2022/12/22 09:09:17;;;;;;;27.83;8.15;;;;;;;;;;5013054;28;20033;-77
2022/12/22 09:11:43;;;;;;;31.58;7.75;;;;;;;;;;5017372;28;20026;-81
2022/12/22 09:14:09;;;;;;;30.48;6.90;;;;;;;;;;5017495;28;20056;-76
2022/12/22 09:16:34;;;;;;;35.35;5.65;;;;;;;;;;5010076;28;20029;-77
2022/12/22 09:19:00;;;;;;;22.52;6.03;;;;;;;;;;5023583;28;20029;-78
2022/12/22 09:21:26;;;;;;;20.17;5.57;;;;;;;;;;5011433;28;20054;-79
2022/12/22 09:23:53;;;;;;;60.15;7.13;;;;;;;;;;5020247;28;20021;-76
2022/12/22 09:26:20;;;;;;;25.85;5.50;;;;;;;;;;5009396;28;20072;-79
2022/12/22 09:28:46;;;;;;;31.50;7.00;;;;;;;;;;4999066;28;20432;-78
2022/12/22 09:31:11;;;;;;;23.73;5.93;;;;;;;;;;5009383;28;20036;-76
2022/12/22 09:33:37;;;;;;;22.63;5.85;;;;;;;;;;5010446;28;20090;-76
2022/12/22 09:36:07;;;;;;;26.40;5.95;;;;;;;;;;5011640;28;20084;-77
2022/12/22 09:38:33;;;;;;;26.45;6.30;;;;;;;;;;5008986;28;20041;-76
2022/12/22 09:40:58;;;;;;;35.72;6.32;;;;;;;;;;5009411;28;20432;-78
2022/12/22 09:43:28;;;;;;;26.23;6.10;;;;;;;;;;5008611;28;20057;-78
2022/12/22 09:45:56;;;;;;;19.25;5.80;;;;;;;;;;5013581;28;20021;-78
2022/12/22 09:48:21;;;;;;;27.63;5.57;;;;;;;;;;5009471;28;20554;-77
2022/12/22 09:50:47;;;;;;;30.05;6.63;;;;;;;;;;5014402;28;20030;-76
2022/12/22 09:53:19;;;;;;;27.65;6.90;;;;;;;;;;5011866;28;20069;-78
2022/12/22 09:55:47;;;;;;;27.27;6.07;;;;;;;;;;5008993;28;20437;-78
2022/12/22 09:58:30;;;;;;;30.42;6.07;;;;;;;;;;5008903;28;20477;-80
2022/12/22 10:01:05;;;;;;;29.52;7.10;;;;;;;;;;5044468;28;20022;-75
2022/12/22 10:03:54;;;;;;;27.00;6.53;;;;;;;;;;5014330;28;20065;-77
2022/12/22 10:06:50;;;;;;;27.63;6.47;;;;;;;;;;4998153;28;20058;-74
2022/12/22 10:09:24;;;;;;;40.45;6.93;;;;;;;;;;4996817;28;20083;-75
2022/12/22 10:11:55;;;;;;;35.38;7.57;;;;;;;;;;5027408;28;20037;-76
2022/12/22 10:14:23;;;;;;;27.95;8.15;;;;;;;;;;5018593;28;20037;-76
2022/12/22 10:17:39;;;;;;;42.83;9.43;;;;;;;;;;5020999;28;20029;-75
2022/12/22 10:20:19;;;;;;;34.00;9.65;;;;;;;;;;5016450;28;20490;-76
2022/12/22 10:22:48;;;;;;;35.90;10.05;;;;;;;;;;5017043;28;20022;-76
2022/12/22 10:25:50;;;;;;;46.35;10.68;;;;;;;;;;5020842;28;20124;-78
2022/12/22 10:28:19;;;;;;;54.65;11.15;;;;;;;;;;5010526;28;20049;-76
2022/12/22 10:30:45;;;;;;;33.88;9.38;;;;;;;;;;5019944;28;20117;-78
2022/12/22 10:33:13;;;;;;;34.95;8.90;;;;;;;;;;5017840;28;20458;-76
2022/12/22 10:35:51;;;;;;;33.30;10.18;;;;;;;;;;5011385;28;20038;-77
2022/12/22 10:38:29;;;;;;;32.28;9.85;;;;;;;;;;5015620;28;20044;-78
2022/12/22 10:40:58;;;;;;;41.25;10.80;;;;;;;;;;5003242;28;20025;-78
2022/12/22 10:43:28;;;;;;;49.50;10.20;;;;;;;;;;5048784;28;20053;-78
2022/12/22 10:45:54;;;;;;;35.38;10.55;;;;;;;;;;5016622;28;20501;-79
2022/12/22 10:48:39;;;;;;;45.20;10.57;;;;;;;;;;5017362;28;20046;-79
2022/12/22 10:51:06;;;;;;;39.95;10.60;;;;;;;;;;5018748;28;20029;-79
2022/12/22 10:53:43;;;;;;;37.80;10.32;;;;;;;;;;5017026;28;20041;-79
2022/12/22 10:56:17;;;;;;;48.50;11.40;;;;;;;;;;5017661;28;20038;-78
2022/12/22 10:59:09;;;;;;;43.88;11.45;;;;;;;;;;5008489;28;20046;-78
2022/12/22 11:01:36;;;;;;;35.95;11.00;;;;;;;;;;5013812;28;20057;-78
2022/12/22 11:04:26;;;;;;;35.03;10.55;;;;;;;;;;5020337;28;20045;-77
2022/12/22 11:06:52;;;;;;;31.92;11.25;;;;;;;;;;5021753;28;20385;-78
2022/12/22 11:09:18;;;;;;;31.08;11.90;;;;;;;;;;5026953;28;20047;-77
2022/12/22 11:11:54;;;;;;;22.67;7.47;;;;;;;;;;5016072;28;20029;-78
2022/12/22 11:14:38;;;;;;;20.65;6.68;;;;;;;;;;5012537;28;20100;-77
2022/12/22 11:17:09;;;;;;;5.50;2.10;;;;;;;;;;5016238;28;20045;-77
2022/12/22 11:20:11;;;;;;;13.25;4.80;;;;;;;;;;5017098;28;20038;-77
2022/12/22 11:22:40;;;;;;;12.20;4.65;;;;;;;;;;5014082;28;20034;-76
2022/12/22 11:25:24;;;;;;;18.75;8.13;;;;;;;;;;5010822;28;20038;-77
2022/12/22 11:27:59;;;;;;;15.60;5.63;;;;;;;;;;5012597;28;20034;-77
2022/12/22 11:30:49;;;;;;;16.33;4.15;;;;;;;;;;5018382;28;20033;-77
2022/12/22 11:33:32;;;;;;;7.55;2.80;;;;;;;;;;5012772;28;20046;-76
2022/12/22 11:35:59;;;;;;;12.10;3.42;;;;;;;;;;5029174;28;20489;-76
2022/12/22 11:38:44;;;;;;;6.47;2.65;;;;;;;;;;5020406;28;20037;-78
2022/12/22 11:41:22;;;;;;;10.65;2.38;;;;;;;;;;5000948;28;20042;-76
2022/12/22 11:44:06;;;;;;;6.95;2.92;;;;;;;;;;5016430;28;20121;-76
2022/12/22 11:46:51;;;;;;;6.82;2.53;;;;;;;;;;5018665;28;20066;-76
2022/12/22 11:49:44;;;;;;;10.63;2.97;;;;;;;;;;5020872;28;20092;-77
2022/12/22 11:52:18;;;;;;;10.98;3.80;;;;;;;;;;5016150;28;20034;-76
2022/12/22 11:54:59;;;;;;;18.80;8.98;;;;;;;;;;5026454;28;20401;-78
2022/12/22 11:57:40;;;;;;;10.98;2.97;;;;;;;;;;5018635;28;20505;-78
2022/12/22 12:00:09;;;;;;;15.45;3.30;;;;;;;;;;5013122;28;20049;-77
2022/12/22 12:02:54;;;;;;;14.52;3.63;;;;;;;;;;5022661;28;20117;-77
2022/12/22 12:05:32;;;;;;;9.82;4.25;;;;;;;;;;5018987;28;20040;-76
2022/12/22 12:08:11;;;;;;;4.53;1.80;;;;;;;;;;5007590;28;20033;-77
2022/12/22 12:10:42;;;;;;;5.38;2.00;;;;;;;;;;5016851;28;20029;-78
2022/12/22 12:13:42;;;;;;;4.55;1.58;;;;;;;;;;5012677;28;20038;-77
2022/12/22 12:16:17;;;;;;;2.95;1.05;;;;;;;;;;5001895;28;20790;-77
2022/12/22 12:18:45;;;;;;;4.80;1.20;;;;;;;;;;5023156;28;20049;-77
2022/12/22 12:21:53;;;;;;;3.67;1.20;;;;;;;;;;5020806;28;20026;-76
2022/12/22 12:24:46;;;;;;;2.40;0.90;;;;;;;;;;5010918;28;20056;-77
2022/12/22 12:27:27;;;;;;;2.92;1.10;;;;;;;;;;5011084;28;20041;-77
2022/12/22 12:30:06;;;;;;;5.95;1.10;;;;;;;;;;5023862;28;20044;-76
2022/12/22 12:33:00;;;;;;;4.60;1.20;;;;;;;;;;5013348;28;20445;-76
2022/12/22 12:35:25;;;;;;;3.93;1.87;;;;;;;;;;4986145;28;20061;-77
2022/12/22 12:37:56;;;;;;;9.52;1.70;;;;;;;;;;5013743;28;20025;-77
2022/12/22 12:40:49;;;;;;;3.35;1.30;;;;;;;;;;5021063;28;20121;-78
2022/12/22 12:43:16;;;;;;;5.28;1.35;;;;;;;;;;5006970;28;20038;-77
2022/12/22 12:45:47;;;;;;;5.03;0.80;;;;;;;;;;5021038;28;20083;-77
2022/12/22 12:48:19;;;;;;;2.88;1.30;;;;;;;;;;5019183;28;20049;-77
2022/12/22 12:51:05;;;;;;;2.65;1.02;;;;;;;;;;5009707;28;20416;-78
2022/12/22 12:53:30;;;;;;;6.57;2.05;;;;;;;;;;5013318;28;20042;-78
2022/12/22 12:55:58;;;;;;;8.63;2.38;;;;;;;;;;5014725;28;20104;-78
2022/12/22 12:58:39;;;;;;;5.95;2.40;;;;;;;;;;5012493;28;20033;-78
2022/12/22 13:01:31;;;;;;;2.75;1.30;;;;;;;;;;5016160;28;20156;-78
2022/12/22 13:03:57;;;;;;;5.47;2.90;;;;;;;;;;5018008;28;20053;-78
2022/12/22 13:06:50;;;;;;;7.85;2.00;;;;;;;;;;5015784;28;20410;-78
2022/12/22 13:09:18;;;;;;;2.40;1.30;;;;;;;;;;5010164;28;20112;-78
2022/12/22 13:11:43;;;;;;;3.20;1.42;;;;;;;;;;5019385;28;20496;-79
2022/12/22 13:14:09;;;;;;;2.55;1.20;;;;;;;;;;5013147;28;20030;-78
2022/12/22 13:16:36;;;;;;;2.67;1.23;;;;;;;;;;5013735;28;20041;-78
2022/12/22 13:19:05;;;;;;;2.47;0.93;;;;;;;;;;5017102;28;20537;-77
2022/12/22 13:21:40;;;;;;;2.47;1.10;;;;;;;;;;5011509;28;20048;-78
2022/12/22 13:24:16;;;;;;;2.85;1.15;;;;;;;;;;5013436;28;20064;-78
2022/12/22 13:26:43;;;;;;;2.83;0.70;;;;;;;;;;5011904;28;20485;-78
2022/12/22 13:29:18;;;;;;;2.83;1.02;;;;;;;;;;5016009;28;20064;-79
2022/12/22 13:31:45;;;;;;;3.85;1.00;;;;;;;;;;5029202;28;20397;-79
2022/12/22 13:34:29;;;;;;;2.40;1.10;;;;;;;;;;5027015;28;20038;-78
2022/12/22 13:36:55;;;;;;;;;;;;;;;;;;5011945;28;20401;-78
2022/12/22 13:39:20;;;;;;;3.70;1.60;;;;;;;;;;5013376;28;19917;-78
2022/12/22 13:41:47;;;;;;;4.40;2.30;;;;;;;;;;5012652;28;20038;-78
2022/12/22 13:44:25;;;;;;;4.22;2.15;;;;;;;;;;5002314;28;20033;-79
2022/12/22 13:46:51;;;;;;;3.05;1.30;;;;;;;;;;5039734;28;20042;-78
2022/12/22 13:49:17;;;;;;;3.05;1.50;;;;;;;;;;5020667;28;20107;-78
2022/12/22 13:51:45;;;;;;;2.40;1.40;;;;;;;;;;5012369;28;20054;-77
2022/12/22 13:54:18;;;;;;;3.85;2.40;;;;;;;;;;5018062;28;20061;-77
2022/12/22 13:56:50;;;;;;;4.13;1.50;;;;;;;;;;5001505;28;20038;-78
2022/12/22 13:59:33;;;;;;;3.40;1.70;;;;;;;;;;5016361;28;20046;-78
2022/12/22 14:02:10;;;;;;;4.45;1.67;;;;;;;;;;5017548;28;20038;-78
2022/12/22 14:04:37;;;;;;;9.02;3.42;;;;;;;;;;5002958;28;20037;-77
2022/12/22 14:07:16;;;;;;;8.52;3.58;;;;;;;;;;5010075;28;20045;-77
2022/12/22 14:09:46;;;;;;;4.13;1.55;;;;;;;;;;4992609;28;20045;-77
2022/12/22 14:12:17;;;;;;;3.47;1.50;;;;;;;;;;5011356;28;20442;-78
2022/12/22 14:14:48;;;;;;;3.42;1.48;;;;;;;;;;5018248;28;20046;-78
2022/12/22 14:17:22;;;;;;;4.40;1.42;;;;;;;;;;5013416;28;20045;-78
2022/12/22 14:19:51;;;;;;;4.13;1.20;;;;;;;;;;5013435;28;20934;-77
2022/12/22 14:22:20;;;;;;;3.45;1.13;;;;;;;;;;5013953;28;20025;-78
2022/12/22 14:24:53;;;;;;;5.20;1.58;;;;;;;;;;5008077;28;20470;-77
2022/12/22 14:27:38;;;;;;;9.18;1.40;;;;;;;;;;5041260;28;20116;-78
2022/12/22 14:30:07;;;;;;;3.30;1.58;;;;;;;;;;5020472;28;20032;-77
2022/12/22 14:32:44;;;;;;;5.57;1.35;;;;;;;;;;5002625;28;20041;-78
2022/12/22 14:35:21;;;;;;;2.58;1.08;;;;;;;;;;5014118;28;20045;-77
2022/12/22 14:37:48;;;;;;;2.92;1.35;;;;;;;;;;5013473;28;20041;-77
2022/12/22 14:40:39;;;;;;;6.90;1.52;;;;;;;;;;5014799;28;20505;-76
2022/12/22 14:43:20;;;;;;;3.88;1.33;;;;;;;;;;5044589;28;20030;-77
2022/12/22 14:45:47;;;;;;;5.18;1.60;;;;;;;;;;5047791;28;20042;-77
2022/12/22 14:48:18;;;;;;;5.07;1.40;;;;;;;;;;5026840;28;20045;-77
2022/12/22 14:50:48;;;;;;;4.90;1.38;;;;;;;;;;5026676;28;20037;-76
2022/12/22 14:53:15;;;;;;;6.13;1.30;;;;;;;;;;5014464;28;20112;-77
2022/12/22 14:55:41;;;;;;;3.13;1.33;;;;;;;;;;5026666;28;20033;-77
2022/12/22 14:58:30;;;;;;;5.35;1.83;;;;;;;;;;5016241;28;20061;-77
2022/12/22 15:01:14;;;;;;;3.92;1.40;;;;;;;;;;5017434;28;20040;-77
2022/12/22 15:03:40;;;;;;;3.90;1.45;;;;;;;;;;5025595;28;20040;-77
2022/12/22 15:06:27;;;;;;;5.63;1.88;;;;;;;;;;5017378;28;20034;-78
2022/12/22 15:09:07;;;;;;;6.57;2.10;;;;;;;;;;5011654;28;20037;-76
2022/12/22 15:11:35;;;;;;;9.35;3.03;;;;;;;;;;5001677;28;20041;-77
2022/12/22 15:14:00;;;;;;;11.85;3.42;;;;;;;;;;5019205;28;20459;-76
2022/12/22 15:16:26;;;;;;;5.35;2.13;;;;;;;;;;5023458;28;20034;-77
2022/12/22 15:18:51;;;;;;;16.05;8.52;;;;;;;;;;5013738;28;20116;-76
2022/12/22 15:21:18;;;;;;;15.73;7.30;;;;;;;;;;5021747;28;20031;-77
2022/12/22 15:23:44;;;;;;;15.15;8.10;;;;;;;;;;5025520;28;20044;-77
2022/12/22 15:26:10;;;;;;;10.63;5.15;;;;;;;;;;5028610;28;20033;-76
2022/12/22 15:28:35;;;;;;;25.25;12.05;;;;;;;;;;5026435;28;20384;-75
2022/12/22 15:31:02;;;;;;;20.05;9.70;;;;;;;;;;5024932;28;20034;-76
2022/12/22 15:33:29;;;;;;;15.05;6.80;;;;;;;;;;5018144;28;20072;-77
2022/12/22 15:35:54;;;;;;;25.52;14.77;;;;;;;;;;5037038;28;20397;-77
2022/12/22 15:38:24;;;;;;;24.38;12.95;;;;;;;;;;5014551;28;20038;-77
2022/12/22 15:40:50;;;;;;;20.98;9.10;;;;;;;;;;5017337;28;20588;-77
2022/12/22 15:43:16;;;;;;;15.93;7.32;;;;;;;;;;5005462;28;20433;-77
2022/12/22 15:45:42;;;;;;;13.57;7.05;;;;;;;;;;5014894;28;20084;-77
2022/12/22 15:48:11;;;;;;;15.48;7.15;;;;;;;;;;5017182;28;20464;-76
2022/12/22 15:50:40;;;;;;;17.05;6.70;;;;;;;;;;5027706;28;20072;-76
2022/12/22 15:53:08;;;;;;;20.08;7.97;;;;;;;;;;5025579;28;20049;-78
2022/12/22 15:55:38;;;;;;;14.95;6.80;;;;;;;;;;5022330;28;20096;-77
2022/12/22 15:58:04;;;;;;;18.65;6.75;;;;;;;;;;5017909;28;20032;-77
2022/12/22 16:00:29;;;;;;;19.98;6.47;;;;;;;;;;5028224;28;20037;-77
2022/12/22 16:02:55;;;;;;;15.63;7.28;;;;;;;;;;5026815;28;20053;-77
2022/12/22 16:05:20;;;;;;;18.08;7.55;;;;;;;;;;5019737;28;20026;-77
2022/12/22 16:07:45;;;;;;;18.85;9.15;;;;;;;;;;5024856;28;20037;-76
2022/12/22 16:10:26;;;;;;;25.70;9.82;;;;;;;;;;5013160;28;20034;-75
2022/12/22 16:12:54;;;;;;;25.75;11.38;;;;;;;;;;5017201;28;20064;-76
2022/12/22 16:15:21;;;;;;;34.83;12.93;;;;;;;;;;5016240;28;20052;-77
2022/12/22 16:17:46;;;;;;;54.92;16.65;;;;;;;;;;5016829;28;20477;-76
2022/12/22 16:20:11;;;;;;;66.80;20.23;;;;;;;;;;5020850;28;20030;-76
2022/12/22 16:22:38;;;;;;;78.32;21.42;;;;;;;;;;5020548;28;20049;-76
2022/12/22 16:25:06;;;;;;;58.70;17.50;;;;;;;;;;5015692;28;20026;-76
2022/12/22 16:27:32;;;;;;;26.70;10.68;;;;;;;;;;5012948;28;20042;-77
2022/12/22 16:29:57;;;;;;;37.40;13.23;;;;;;;;;;5016894;28;20076;-76
2022/12/22 16:32:26;;;;;;;39.38;13.43;;;;;;;;;;5014276;28;20030;-76
2022/12/22 16:34:52;;;;;;;42.75;16.20;;;;;;;;;;5022811;28;20547;-76
2022/12/22 16:37:17;;;;;;;53.72;18.15;;;;;;;;;;5021335;28;20510;-76
2022/12/22 16:39:43;;;;;;;42.05;15.27;;;;;;;;;;5027587;28;20041;-76
2022/12/22 16:42:12;;;;;;;36.58;13.68;;;;;;;;;;5017371;28;20041;-76
2022/12/22 16:44:37;;;;;;;32.17;12.48;;;;;;;;;;5016494;28;20505;-76
2022/12/22 16:47:04;;;;;;;41.63;16.23;;;;;;;;;;5013714;28;20038;-76
2022/12/22 16:49:29;;;;;;;44.67;16.58;;;;;;;;;;5027131;28;20071;-76
2022/12/22 16:51:55;;;;;;;35.83;13.63;;;;;;;;;;5021527;28;20510;-76
2022/12/22 16:54:20;;;;;;;33.35;12.52;;;;;;;;;;5026670;28;20478;-76
2022/12/22 16:56:49;;;;;;;34.63;12.07;;;;;;;;;;5015573;28;20037;-76
2022/12/22 16:59:16;;;;;;;35.63;13.10;;;;;;;;;;5018535;28;20048;-76
2022/12/22 17:01:42;;;;;;;36.17;11.05;;;;;;;;;;5006493;28;20076;-76
2022/12/22 17:04:14;;;;;;;90.78;13.13;;;;;;;;;;5016757;28;20100;-76
2022/12/22 17:06:40;;;;;;;104.05;14.25;;;;;;;;;;5013320;28;20088;-76
2022/12/22 17:09:10;;;;;;;43.90;10.75;;;;;;;;;;5018997;28;20067;-76
2022/12/22 17:11:36;;;;;;;45.33;12.02;;;;;;;;;;5016470;28;20052;-76
2022/12/22 17:14:05;;;;;;;41.10;12.57;;;;;;;;;;5020793;28;20481;-76
2022/12/22 17:16:30;;;;;;;263.15;17.83;;;;;;;;;;5020857;28;20037;-76
2022/12/22 17:18:56;;;;;;;160.80;14.70;;;;;;;;;;5012502;28;20470;-76
2022/12/22 17:21:21;;;;;;;49.88;13.10;;;;;;;;;;5012866;28;20420;-75
2022/12/22 17:23:51;;;;;;;45.40;14.10;;;;;;;;;;5012411;28;20045;-76
2022/12/22 17:26:19;;;;;;;52.38;14.57;;;;;;;;;;5020261;28;20025;-76
2022/12/22 17:28:46;;;;;;;35.00;12.02;;;;;;;;;;5042650;28;20143;-77
2022/12/22 17:31:16;;;;;;;55.97;15.93;;;;;;;;;;5015834;28;20033;-76
2022/12/22 17:33:42;;;;;;;44.05;16.13;;;;;;;;;;4991676;28;20034;-77
2022/12/22 17:36:35;;;;;;;58.55;16.55;;;;;;;;;;5011818;28;20117;-76
2022/12/22 17:39:02;;;;;;;77.60;18.13;;;;;;;;;;5009804;28;20054;-77
2022/12/22 17:41:27;;;;;;;71.03;17.30;;;;;;;;;;5011553;28;20038;-77
2022/12/22 17:43:53;;;;;;;87.28;20.05;;;;;;;;;;5009477;28;20124;-77
2022/12/22 17:46:19;;;;;;;128.95;20.45;;;;;;;;;;5015189;28;20474;-76
2022/12/22 17:48:46;;;;;;;83.95;19.27;;;;;;;;;;5020028;28;20041;-76
2022/12/22 17:51:29;;;;;;;117.90;18.80;;;;;;;;;;5025989;28;20041;-76
2022/12/22 17:53:56;;;;;;;86.90;19.73;;;;;;;;;;5015203;28;20053;-76
2022/12/22 17:56:23;;;;;;;139.70;27.40;;;;;;;;;;5021441;28;20037;-76
2022/12/22 17:58:49;;;;;;;88.60;25.63;;;;;;;;;;5016548;28;20057;-75
2022/12/22 18:01:29;;;;;;;112.05;27.13;;;;;;;;;;5025248;28;20069;-76
2022/12/22 18:03:55;;;;;;;122.40;31.40;;;;;;;;;;5016419;28;20042;-76
2022/12/22 18:06:23;;;;;;;103.45;23.95;;;;;;;;;;5016926;28;20091;-76
2022/12/22 18:08:50;;;;;;;185.75;26.25;;;;;;;;;;5005869;28;20046;-76
2022/12/22 18:11:16;;;;;;;466.98;35.58;;;;;;;;;;5015081;28;20367;-76
2022/12/22 18:13:41;;;;;;;388.23;24.38;;;;;;;;;;5005449;28;20061;-77
2022/12/22 18:16:12;;;;;;;343.30;22.85;;;;;;;;;;5012683;28;20068;-76
2022/12/22 18:18:39;;;;;;;112.22;19.25;;;;;;;;;;5014291;28;20440;-76
2022/12/22 18:21:04;;;;;;;160.07;19.65;;;;;;;;;;5017985;28;20378;-76
2022/12/22 18:23:31;;;;;;;156.02;24.42;;;;;;;;;;5014861;28;20045;-77
2022/12/22 18:25:57;;;;;;;113.93;23.50;;;;;;;;;;5019522;28;20037;-76